Terminal Aerodrome Forecast
Issued by NWS Twin Cities, MN

Home | Current Version | Previous Version | Graphics & Text | Print | Product List | Glossary On
Versions: 1 2 3 4 5 6 7 8 9 10 11 12 13 14
000
FTUS43 KMPX 212336
TAFEAU
TAF
KEAU 212336Z 2200/2224 24011KT P6SM VCSH OVC010
     FM220400 25010KT P6SM VCSH OVC015
     FM221100 25008KT P6SM OVC035
     FM221800 27012KT P6SM BKN060=

USA.gov is the U.S. government's official web portal to all federal, state and local government web resources and services.